sensor_id;sensor_type;location;lat;lon;timestamp;pressure;altitude;pressure_sealevel;temperature;humidity
45872;BME280;32333;55.844;-3.210;2023-02-23T00:01:58;100083.42;;;0.98;100.00
45872;BME280;32333;55.844;-3.210;2023-02-23T00:04:27;100083.60;;;0.27;100.00
45872;BME280;32333;55.844;-3.210;2023-02-23T00:06:54;100080.26;;;0.54;100.00
45872;BME280;32333;55.844;-3.210;2023-02-23T00:09:22;100077.51;;;1.09;100.00
45872;BME280;32333;55.844;-3.210;2023-02-23T00:11:50;100073.34;;;1.49;100.00
45872;BME280;32333;55.844;-3.210;2023-02-23T00:14:37;100072.78;;;0.89;100.00
45872;BME280;32333;55.844;-3.210;2023-02-23T00:17:05;100075.10;;;1.21;100.00
45872;BME280;32333;55.844;-3.210;2023-02-23T00:19:34;100077.66;;;1.84;100.00
45872;BME280;32333;55.844;-3.210;2023-02-23T00:22:02;100091.95;;;2.01;100.00
45872;BME280;32333;55.844;-3.210;2023-02-23T00:24:30;100097.16;;;1.31;100.00
45872;BME280;32333;55.844;-3.210;2023-02-23T00:26:57;100101.34;;;0.17;100.00
45872;BME280;32333;55.844;-3.210;2023-02-23T00:29:25;100104.12;;;2.06;100.00
45872;BME280;32333;55.844;-3.210;2023-02-23T00:31:53;100100.66;;;1.79;100.00
45872;BME280;32333;55.844;-3.210;2023-02-23T00:34:20;100098.39;;;1.01;100.00
45872;BME280;32333;55.844;-3.210;2023-02-23T00:36:50;100095.67;;;1.67;100.00
45872;BME280;32333;55.844;-3.210;2023-02-23T00:39:17;100099.85;;;1.19;100.00
45872;BME280;32333;55.844;-3.210;2023-02-23T00:41:45;100102.99;;;2.17;100.00
45872;BME280;32333;55.844;-3.210;2023-02-23T00:44:37;100110.70;;;1.49;100.00
45872;BME280;32333;55.844;-3.210;2023-02-23T00:47:05;100111.42;;;1.59;100.00
45872;BME280;32333;55.844;-3.210;2023-02-23T00:49:33;100110.91;;;0.31;100.00
45872;BME280;32333;55.844;-3.210;2023-02-23T00:52:01;100116.16;;;0.61;100.00
45872;BME280;32333;55.844;-3.210;2023-02-23T00:54:28;100117.95;;;0.55;100.00
45872;BME280;32333;55.844;-3.210;2023-02-23T00:56:56;100121.42;;;0.41;100.00
45872;BME280;32333;55.844;-3.210;2023-02-23T00:59:23;100127.25;;;0.84;100.00
45872;BME280;32333;55.844;-3.210;2023-02-23T01:01:51;100130.41;;;1.31;100.00
45872;BME280;32333;55.844;-3.210;2023-02-23T01:04:19;100132.38;;;0.30;100.00
45872;BME280;32333;55.844;-3.210;2023-02-23T01:06:47;100131.27;;;0.82;100.00
45872;BME280;32333;55.844;-3.210;2023-02-23T01:09:16;100135.19;;;-0.13;100.00
45872;BME280;32333;55.844;-3.210;2023-02-23T01:11:43;100136.45;;;0.08;100.00
45872;BME280;32333;55.844;-3.210;2023-02-23T01:14:36;100135.30;;;0.32;100.00
45872;BME280;32333;55.844;-3.210;2023-02-23T01:17:04;100138.28;;;-0.04;100.00
45872;BME280;32333;55.844;-3.210;2023-02-23T01:19:32;100138.69;;;-0.40;100.00
45872;BME280;32333;55.844;-3.210;2023-02-23T01:22:00;100141.08;;;0.31;100.00
45872;BME280;32333;55.844;-3.210;2023-02-23T01:24:28;100141.56;;;0.97;100.00
45872;BME280;32333;55.844;-3.210;2023-02-23T01:26:55;100147.17;;;1.06;100.00
45872;BME280;32333;55.844;-3.210;2023-02-23T01:29:23;100141.87;;;1.98;100.00
45872;BME280;32333;55.844;-3.210;2023-02-23T01:31:51;100138.30;;;1.78;100.00
45872;BME280;32333;55.844;-3.210;2023-02-23T01:34:19;100142.47;;;0.72;100.00
45872;BME280;32333;55.844;-3.210;2023-02-23T01:36:49;100148.01;;;1.35;100.00
45872;BME280;32333;55.844;-3.210;2023-02-23T01:39:18;100150.98;;;1.21;100.00
45872;BME280;32333;55.844;-3.210;2023-02-23T01:41:47;100148.53;;;1.12;100.00
45872;BME280;32333;55.844;-3.210;2023-02-23T01:45:22;100151.54;;;1.85;100.00
45872;BME280;32333;55.844;-3.210;2023-02-23T01:47:53;100156.38;;;1.38;100.00
45872;BME280;32333;55.844;-3.210;2023-02-23T02:56:57;100180.23;;;-0.48;100.00
45872;BME280;32333;55.844;-3.210;2023-02-23T02:59:26;100183.41;;;-0.07;100.00
45872;BME280;32333;55.844;-3.210;2023-02-23T03:01:55;100184.85;;;0.62;100.00
45872;BME280;32333;55.844;-3.210;2023-02-23T03:04:24;100185.10;;;0.61;100.00
45872;BME280;32333;55.844;-3.210;2023-02-23T03:07:20;100184.66;;;1.37;100.00
45872;BME280;32333;55.844;-3.210;2023-02-23T03:09:59;100186.40;;;0.24;100.00
45872;BME280;32333;55.844;-3.210;2023-02-23T03:14:42;100189.46;;;-0.96;100.00
45872;BME280;32333;55.844;-3.210;2023-02-23T03:17:44;100190.24;;;-0.77;100.00
45872;BME280;32333;55.844;-3.210;2023-02-23T03:20:34;100192.94;;;-1.46;100.00
45872;BME280;32333;55.844;-3.210;2023-02-23T03:23:09;100190.15;;;0.29;100.00
45872;BME280;32333;55.844;-3.210;2023-02-23T03:25:47;100191.25;;;-0.55;100.00
45872;BME280;32333;55.844;-3.210;2023-02-23T03:28:19;100195.85;;;0.22;100.00
45872;BME280;32333;55.844;-3.210;2023-02-23T03:30:52;100202.24;;;0.37;100.00
45872;BME280;32333;55.844;-3.210;2023-02-23T03:33:29;100203.30;;;-1.03;100.00
45872;BME280;32333;55.844;-3.210;2023-02-23T03:36:08;100202.81;;;-0.83;100.00
45872;BME280;32333;55.844;-3.210;2023-02-23T03:38:42;100204.47;;;-0.44;100.00
45872;BME280;32333;55.844;-3.210;2023-02-23T03:41:12;100204.11;;;-0.83;100.00
45872;BME280;32333;55.844;-3.210;2023-02-23T03:44:39;100204.68;;;-0.56;100.00
45872;BME280;32333;55.844;-3.210;2023-02-23T03:47:09;100208.18;;;-0.24;100.00
45872;BME280;32333;55.844;-3.210;2023-02-23T03:49:39;100207.92;;;0.06;100.00
45872;BME280;32333;55.844;-3.210;2023-02-23T03:52:13;100211.15;;;0.13;100.00
45872;BME280;32333;55.844;-3.210;2023-02-23T03:54:46;100210.76;;;0.26;100.00
45872;BME280;32333;55.844;-3.210;2023-02-23T03:57:18;100212.86;;;-0.83;100.00
45872;BME280;32333;55.844;-3.210;2023-02-23T03:59:51;100214.98;;;0.03;100.00
45872;BME280;32333;55.844;-3.210;2023-02-23T04:02:20;100218.75;;;0.44;100.00
45872;BME280;32333;55.844;-3.210;2023-02-23T04:04:49;100219.54;;;0.62;100.00
45872;BME280;32333;55.844;-3.210;2023-02-23T04:07:19;100222.60;;;-0.36;100.00
45872;BME280;32333;55.844;-3.210;2023-02-23T04:09:47;100227.76;;;-0.59;100.00
45872;BME280;32333;55.844;-3.210;2023-02-23T04:14:40;100226.86;;;0.14;100.00
45872;BME280;32333;55.844;-3.210;2023-02-23T04:17:11;100229.34;;;-0.18;100.00
45872;BME280;32333;55.844;-3.210;2023-02-23T04:19:48;100233.13;;;-0.76;100.00
45872;BME280;32333;55.844;-3.210;2023-02-23T04:22:15;100232.37;;;-0.27;100.00
45872;BME280;32333;55.844;-3.210;2023-02-23T04:24:44;100230.66;;;-0.43;100.00
45872;BME280;32333;55.844;-3.210;2023-02-23T04:27:12;100231.78;;;0.69;100.00
45872;BME280;32333;55.844;-3.210;2023-02-23T04:30:56;100237.00;;;-0.64;100.00
45872;BME280;32333;55.844;-3.210;2023-02-23T04:33:24;100233.66;;;-0.74;100.00
45872;BME280;32333;55.844;-3.210;2023-02-23T04:35:52;100230.35;;;-0.68;100.00
45872;BME280;32333;55.844;-3.210;2023-02-23T04:38:43;100231.27;;;-1.32;100.00
45872;BME280;32333;55.844;-3.210;2023-02-23T04:41:20;100233.23;;;-0.70;100.00
45872;BME280;32333;55.844;-3.210;2023-02-23T04:44:40;100226.73;;;-0.56;100.00
45872;BME280;32333;55.844;-3.210;2023-02-23T04:47:09;100223.06;;;0.31;100.00
45872;BME280;32333;55.844;-3.210;2023-02-23T04:49:37;100216.92;;;-0.22;100.00
45872;BME280;32333;55.844;-3.210;2023-02-23T04:52:04;100213.83;;;0.30;100.00
45872;BME280;32333;55.844;-3.210;2023-02-23T04:54:32;100210.62;;;-0.35;100.00
45872;BME280;32333;55.844;-3.210;2023-02-23T04:57:00;100207.55;;;0.36;100.00
45872;BME280;32333;55.844;-3.210;2023-02-23T04:59:28;100207.52;;;0.65;100.00
45872;BME280;32333;55.844;-3.210;2023-02-23T05:01:55;100206.06;;;1.32;100.00
45872;BME280;32333;55.844;-3.210;2023-02-23T05:04:24;100201.25;;;1.08;100.00
45872;BME280;32333;55.844;-3.210;2023-02-23T05:06:52;100202.14;;;0.80;100.00
45872;BME280;32333;55.844;-3.210;2023-02-23T05:09:20;100197.83;;;0.82;100.00
45872;BME280;32333;55.844;-3.210;2023-02-23T05:11:49;100197.89;;;-0.05;100.00
45872;BME280;32333;55.844;-3.210;2023-02-23T05:14:36;100187.10;;;0.05;100.00
45872;BME280;32333;55.844;-3.210;2023-02-23T05:17:03;100176.33;;;0.13;100.00
45872;BME280;32333;55.844;-3.210;2023-02-23T05:19:31;100167.97;;;0.38;100.00
45872;BME280;32333;55.844;-3.210;2023-02-23T05:21:59;100167.72;;;-0.18;100.00
45872;BME280;32333;55.844;-3.210;2023-02-23T05:24:27;100172.29;;;-0.21;100.00
45872;BME280;32333;55.844;-3.210;2023-02-23T05:26:55;100171.25;;;-0.70;100.00
45872;BME280;32333;55.844;-3.210;2023-02-23T05:29:22;100170.31;;;-1.06;100.00
45872;BME280;32333;55.844;-3.210;2023-02-23T05:31:50;100166.14;;;-1.44;100.00
45872;BME280;32333;55.844;-3.210;2023-02-23T05:34:18;100166.26;;;-0.87;100.00
45872;BME280;32333;55.844;-3.210;2023-02-23T05:36:45;100164.87;;;-0.86;100.00
45872;BME280;32333;55.844;-3.210;2023-02-23T05:39:14;100164.86;;;-0.01;100.00
45872;BME280;32333;55.844;-3.210;2023-02-23T05:41:42;100164.29;;;-0.57;100.00
45872;BME280;32333;55.844;-3.210;2023-02-23T05:44:36;100157.09;;;-0.51;100.00
45872;BME280;32333;55.844;-3.210;2023-02-23T05:47:04;100159.77;;;-0.32;100.00
45872;BME280;32333;55.844;-3.210;2023-02-23T05:49:31;100159.90;;;-0.40;100.00
45872;BME280;32333;55.844;-3.210;2023-02-23T05:52:00;100164.00;;;-1.28;100.00
45872;BME280;32333;55.844;-3.210;2023-02-23T05:54:27;100168.50;;;0.13;100.00
45872;BME280;32333;55.844;-3.210;2023-02-23T05:56:55;100164.10;;;0.60;100.00
45872;BME280;32333;55.844;-3.210;2023-02-23T05:59:25;100167.55;;;-0.00;100.00
45872;BME280;32333;55.844;-3.210;2023-02-23T06:01:53;100167.41;;;0.51;100.00
45872;BME280;32333;55.844;-3.210;2023-02-23T06:04:20;100162.65;;;-0.53;100.00
45872;BME280;32333;55.844;-3.210;2023-02-23T06:06:48;100166.55;;;-0.17;100.00
45872;BME280;32333;55.844;-3.210;2023-02-23T06:09:15;100169.93;;;0.36;100.00
45872;BME280;32333;55.844;-3.210;2023-02-23T06:11:43;100170.34;;;0.54;100.00
45872;BME280;32333;55.844;-3.210;2023-02-23T06:14:35;100167.75;;;1.10;100.00
45872;BME280;32333;55.844;-3.210;2023-02-23T06:17:03;100167.94;;;0.07;100.00
45872;BME280;32333;55.844;-3.210;2023-02-23T06:19:31;100162.38;;;0.26;100.00
45872;BME280;32333;55.844;-3.210;2023-02-23T06:21:59;100162.70;;;-0.17;100.00
45872;BME280;32333;55.844;-3.210;2023-02-23T06:24:27;100160.92;;;0.40;100.00
45872;BME280;32333;55.844;-3.210;2023-02-23T06:26:55;100159.46;;;0.77;100.00
45872;BME280;32333;55.844;-3.210;2023-02-23T06:29:22;100152.46;;;1.06;100.00
45872;BME280;32333;55.844;-3.210;2023-02-23T06:31:50;100153.76;;;0.32;100.00
45872;BME280;32333;55.844;-3.210;2023-02-23T06:34:18;100162.80;;;0.66;100.00
45872;BME280;32333;55.844;-3.210;2023-02-23T06:36:46;100163.07;;;-0.52;100.00
45872;BME280;32333;55.844;-3.210;2023-02-23T06:39:14;100153.95;;;1.09;100.00
45872;BME280;32333;55.844;-3.210;2023-02-23T06:41:43;100143.11;;;0.00;100.00
45872;BME280;32333;55.844;-3.210;2023-02-23T06:44:36;100143.90;;;0.39;100.00
45872;BME280;32333;55.844;-3.210;2023-02-23T06:47:04;100160.30;;;-0.46;100.00
45872;BME280;32333;55.844;-3.210;2023-02-23T06:49:32;100174.45;;;0.10;100.00
45872;BME280;32333;55.844;-3.210;2023-02-23T06:52:01;100185.31;;;1.00;100.00
45872;BME280;32333;55.844;-3.210;2023-02-23T06:54:29;100184.20;;;-0.06;100.00
45872;BME280;32333;55.844;-3.210;2023-02-23T06:56:58;100184.01;;;-0.39;100.00
45872;BME280;32333;55.844;-3.210;2023-02-23T06:59:26;100186.19;;;0.01;100.00
45872;BME280;32333;55.844;-3.210;2023-02-23T07:01:54;100186.08;;;-0.05;100.00
45872;BME280;32333;55.844;-3.210;2023-02-23T07:04:21;100184.99;;;-0.58;100.00
45872;BME280;32333;55.844;-3.210;2023-02-23T07:06:50;100186.17;;;0.11;100.00
45872;BME280;32333;55.844;-3.210;2023-02-23T07:09:19;100183.14;;;-0.09;100.00
45872;BME280;32333;55.844;-3.210;2023-02-23T07:11:47;100187.96;;;0.01;100.00
45872;BME280;32333;55.844;-3.210;2023-02-23T07:14:37;100190.61;;;0.22;100.00
45872;BME280;32333;55.844;-3.210;2023-02-23T07:17:05;100178.07;;;-0.33;100.00
45872;BME280;32333;55.844;-3.210;2023-02-23T07:19:33;100190.36;;;-1.05;100.00
45872;BME280;32333;55.844;-3.210;2023-02-23T07:22:03;100185.99;;;-1.52;100.00
45872;BME280;32333;55.844;-3.210;2023-02-23T07:24:30;100194.49;;;-0.50;100.00
45872;BME280;32333;55.844;-3.210;2023-02-23T07:26:58;100196.17;;;0.17;100.00
45872;BME280;32333;55.844;-3.210;2023-02-23T07:29:26;100196.90;;;-0.04;100.00
45872;BME280;32333;55.844;-3.210;2023-02-23T07:31:54;100202.60;;;-0.36;100.00
45872;BME280;32333;55.844;-3.210;2023-02-23T07:34:22;100200.70;;;-0.40;100.00
45872;BME280;32333;55.844;-3.210;2023-02-23T07:36:50;100200.48;;;-0.19;100.00
45872;BME280;32333;55.844;-3.210;2023-02-23T07:39:18;100206.40;;;-0.84;100.00
45872;BME280;32333;55.844;-3.210;2023-02-23T07:41:46;100211.43;;;0.03;100.00
45872;BME280;32333;55.844;-3.210;2023-02-23T07:44:37;100214.65;;;-0.40;100.00
45872;BME280;32333;55.844;-3.210;2023-02-23T07:47:04;100214.79;;;-0.69;100.00
45872;BME280;32333;55.844;-3.210;2023-02-23T07:49:33;100218.93;;;-0.22;100.00
45872;BME280;32333;55.844;-3.210;2023-02-23T07:52:01;100220.56;;;-0.12;100.00
45872;BME280;32333;55.844;-3.210;2023-02-23T07:54:29;100228.40;;;0.24;100.00
45872;BME280;32333;55.844;-3.210;2023-02-23T07:56:57;100226.87;;;0.76;100.00
45872;BME280;32333;55.844;-3.210;2023-02-23T07:59:26;100229.78;;;0.45;100.00
45872;BME280;32333;55.844;-3.210;2023-02-23T08:01:55;100229.72;;;1.44;100.00
45872;BME280;32333;55.844;-3.210;2023-02-23T08:04:22;100229.26;;;1.27;100.00
45872;BME280;32333;55.844;-3.210;2023-02-23T08:06:51;100229.32;;;1.28;100.00
45872;BME280;32333;55.844;-3.210;2023-02-23T08:09:20;100233.45;;;1.88;100.00
45872;BME280;32333;55.844;-3.210;2023-02-23T08:11:49;100230.76;;;2.63;100.00
45872;BME280;32333;55.844;-3.210;2023-02-23T08:14:36;100226.62;;;2.28;100.00
45872;BME280;32333;55.844;-3.210;2023-02-23T08:17:04;100227.65;;;1.40;100.00
45872;BME280;32333;55.844;-3.210;2023-02-23T08:19:31;100222.59;;;2.12;96.03
45872;BME280;32333;55.844;-3.210;2023-02-23T08:22:00;100224.33;;;2.92;95.23
45872;BME280;32333;55.844;-3.210;2023-02-23T08:24:27;100221.28;;;2.61;96.23
45872;BME280;32333;55.844;-3.210;2023-02-23T08:26:56;100211.70;;;3.66;89.85
45872;BME280;32333;55.844;-3.210;2023-02-23T08:29:24;100214.83;;;3.04;90.81
45872;BME280;32333;55.844;-3.210;2023-02-23T08:31:52;100215.93;;;3.33;90.63
45872;BME280;32333;55.844;-3.210;2023-02-23T08:34:20;100210.82;;;4.12;85.41
45872;BME280;32333;55.844;-3.210;2023-02-23T08:36:50;100212.76;;;3.88;83.37
45872;BME280;32333;55.844;-3.210;2023-02-23T08:39:18;100213.08;;;4.06;83.52
45872;BME280;32333;55.844;-3.210;2023-02-23T08:41:46;100210.69;;;2.76;84.21
45872;BME280;32333;55.844;-3.210;2023-02-23T08:44:35;100205.05;;;4.14;82.32
45872;BME280;32333;55.844;-3.210;2023-02-23T08:47:03;100205.42;;;3.37;83.02
45872;BME280;32333;55.844;-3.210;2023-02-23T08:49:30;100202.03;;;5.30;77.98
45872;BME280;32333;55.844;-3.210;2023-02-23T08:51:59;100202.32;;;5.73;73.07
45872;BME280;32333;55.844;-3.210;2023-02-23T08:54:26;100210.08;;;4.68;76.03
45872;BME280;32333;55.844;-3.210;2023-02-23T08:56:55;100203.94;;;4.99;72.86
45872;BME280;32333;55.844;-3.210;2023-02-23T08:59:24;100206.09;;;3.64;76.71
45872;BME280;32333;55.844;-3.210;2023-02-23T09:01:53;100212.24;;;4.19;74.54
45872;BME280;32333;55.844;-3.210;2023-02-23T09:04:20;100214.16;;;5.56;73.88
45872;BME280;32333;55.844;-3.210;2023-02-23T09:06:48;100214.98;;;5.96;69.79
45872;BME280;32333;55.844;-3.210;2023-02-23T09:09:15;100213.64;;;5.78;67.88
45872;BME280;32333;55.844;-3.210;2023-02-23T09:11:42;100209.11;;;6.72;62.43
45872;BME280;32333;55.844;-3.210;2023-02-23T09:14:36;100212.03;;;6.61;66.07
45872;BME280;32333;55.844;-3.210;2023-02-23T09:17:04;100209.67;;;6.63;64.72
45872;BME280;32333;55.844;-3.210;2023-02-23T09:19:31;100208.14;;;6.03;65.63
45872;BME280;32333;55.844;-3.210;2023-02-23T09:22:00;100209.03;;;6.84;64.32
45872;BME280;32333;55.844;-3.210;2023-02-23T09:24:28;100210.95;;;6.59;64.84
45872;BME280;32333;55.844;-3.210;2023-02-23T09:26:55;100204.64;;;7.75;62.38
45872;BME280;32333;55.844;-3.210;2023-02-23T09:29:24;100202.63;;;8.11;61.22
45872;BME280;32333;55.844;-3.210;2023-02-23T09:31:51;100212.96;;;7.72;61.33
45872;BME280;32333;55.844;-3.210;2023-02-23T09:34:19;100219.44;;;8.30;59.97
45872;BME280;32333;55.844;-3.210;2023-02-23T09:36:48;100225.19;;;7.34;61.26
45872;BME280;32333;55.844;-3.210;2023-02-23T09:39:15;100227.67;;;8.29;58.50
45872;BME280;32333;55.844;-3.210;2023-02-23T09:41:56;100225.52;;;7.05;60.95
45872;BME280;32333;55.844;-3.210;2023-02-23T09:44:42;100217.36;;;7.66;58.52
45872;BME280;32333;55.844;-3.210;2023-02-23T09:47:22;100217.80;;;9.05;60.24
45872;BME280;32333;55.844;-3.210;2023-02-23T09:49:50;100213.40;;;7.73;58.45
45872;BME280;32333;55.844;-3.210;2023-02-23T09:52:23;100213.47;;;7.32;58.66
45872;BME280;32333;55.844;-3.210;2023-02-23T09:54:53;100214.81;;;7.15;61.36
45872;BME280;32333;55.844;-3.210;2023-02-23T09:57:27;100213.47;;;7.74;58.75
45872;BME280;32333;55.844;-3.210;2023-02-23T10:00:00;100212.64;;;8.39;58.42
45872;BME280;32333;55.844;-3.210;2023-02-23T10:02:32;100218.12;;;7.94;57.40
45872;BME280;32333;55.844;-3.210;2023-02-23T10:05:04;100213.58;;;7.72;59.72
45872;BME280;32333;55.844;-3.210;2023-02-23T10:07:41;100211.95;;;7.44;59.90
45872;BME280;32333;55.844;-3.210;2023-02-23T10:10:20;100215.91;;;6.08;63.81
45872;BME280;32333;55.844;-3.210;2023-02-23T10:14:52;100214.37;;;7.67;58.65
45872;BME280;32333;55.844;-3.210;2023-02-23T10:17:31;100216.95;;;6.60;64.62
45872;BME280;32333;55.844;-3.210;2023-02-23T10:20:06;100210.51;;;7.85;60.18
45872;BME280;32333;55.844;-3.210;2023-02-23T10:22:38;100208.78;;;6.82;62.18
45872;BME280;32333;55.844;-3.210;2023-02-23T10:25:11;100205.00;;;7.81;66.42
45872;BME280;32333;55.844;-3.210;2023-02-23T10:27:41;100195.24;;;7.29;61.16
45872;BME280;32333;55.844;-3.210;2023-02-23T10:30:17;100204.52;;;6.08;63.85
45872;BME280;32333;55.844;-3.210;2023-02-23T10:32:52;100192.03;;;8.49;58.27
45872;BME280;32333;55.844;-3.210;2023-02-23T10:35:21;100190.96;;;6.92;64.48
45872;BME280;32333;55.844;-3.210;2023-02-23T10:37:50;100182.34;;;7.53;60.23
45872;BME280;32333;55.844;-3.210;2023-02-23T10:40:21;100179.71;;;7.55;61.51
45872;BME280;32333;55.844;-3.210;2023-02-23T10:44:36;100167.80;;;7.58;63.03
45872;BME280;32333;55.844;-3.210;2023-02-23T10:47:07;100168.02;;;7.09;65.73
45872;BME280;32333;55.844;-3.210;2023-02-23T10:49:42;100162.96;;;7.89;63.31
45872;BME280;32333;55.844;-3.210;2023-02-23T10:52:11;100158.96;;;7.22;65.56
45872;BME280;32333;55.844;-3.210;2023-02-23T10:54:42;100159.86;;;8.11;62.14
45872;BME280;32333;55.844;-3.210;2023-02-23T10:57:18;100164.06;;;7.75;67.65
45872;BME280;32333;55.844;-3.210;2023-02-23T11:00:25;100165.97;;;7.59;66.08
45872;BME280;32333;55.844;-3.210;2023-02-23T11:02:54;100175.09;;;6.30;73.53
45872;BME280;32333;55.844;-3.210;2023-02-23T11:05:44;100169.25;;;7.13;70.20
45872;BME280;32333;55.844;-3.210;2023-02-23T11:08:21;100162.23;;;8.41;68.43
45872;BME280;32333;55.844;-3.210;2023-02-23T11:11:27;100158.95;;;8.25;70.82
45872;BME280;32333;55.844;-3.210;2023-02-23T11:14:35;100157.52;;;7.93;71.47
45872;BME280;32333;55.844;-3.210;2023-02-23T11:17:05;100154.94;;;7.54;69.86
45872;BME280;32333;55.844;-3.210;2023-02-23T11:19:36;100154.75;;;6.93;71.93
45872;BME280;32333;55.844;-3.210;2023-02-23T11:22:06;100156.94;;;7.80;70.30
45872;BME280;32333;55.844;-3.210;2023-02-23T11:24:43;100155.07;;;7.39;70.74
45872;BME280;32333;55.844;-3.210;2023-02-23T11:27:20;100153.07;;;8.53;70.56
45872;BME280;32333;55.844;-3.210;2023-02-23T11:29:53;100146.55;;;7.80;75.08
45872;BME280;32333;55.844;-3.210;2023-02-23T11:32:26;100147.34;;;7.71;71.54
45872;BME280;32333;55.844;-3.210;2023-02-23T11:35:16;100147.35;;;7.12;73.01
45872;BME280;32333;55.844;-3.210;2023-02-23T11:37:51;100148.69;;;6.86;76.33
45872;BME280;32333;55.844;-3.210;2023-02-23T11:40:21;100149.41;;;6.08;83.07
45872;BME280;32333;55.844;-3.210;2023-02-23T11:44:35;100138.83;;;6.72;79.42
45872;BME280;32333;55.844;-3.210;2023-02-23T11:47:03;100142.38;;;6.25;81.91
45872;BME280;32333;55.844;-3.210;2023-02-23T11:49:32;100140.07;;;6.51;82.11
45872;BME280;32333;55.844;-3.210;2023-02-23T11:52:01;100141.11;;;6.56;84.67
45872;BME280;32333;55.844;-3.210;2023-02-23T11:54:31;100141.77;;;5.71;85.15
45872;BME280;32333;55.844;-3.210;2023-02-23T11:57:00;100142.28;;;5.82;88.41
45872;BME280;32333;55.844;-3.210;2023-02-23T11:59:30;100139.50;;;6.63;86.09
45872;BME280;32333;55.844;-3.210;2023-02-23T12:02:04;100137.58;;;5.96;88.57
45872;BME280;32333;55.844;-3.210;2023-02-23T12:04:34;100131.82;;;5.65;90.74
45872;BME280;32333;55.844;-3.210;2023-02-23T12:07:28;100126.30;;;5.27;94.11
45872;BME280;32333;55.844;-3.210;2023-02-23T12:10:02;100119.35;;;5.58;95.93
45872;BME280;32333;55.844;-3.210;2023-02-23T12:14:39;100114.35;;;6.01;93.37
45872;BME280;32333;55.844;-3.210;2023-02-23T12:17:12;100111.38;;;6.39;89.11
45872;BME280;32333;55.844;-3.210;2023-02-23T12:19:45;100109.59;;;4.97;95.49
45872;BME280;32333;55.844;-3.210;2023-02-23T12:22:18;100096.61;;;5.92;93.93
45872;BME280;32333;55.844;-3.210;2023-02-23T12:24:51;100102.18;;;5.34;95.64
45872;BME280;32333;55.844;-3.210;2023-02-23T12:27:23;100097.84;;;5.70;100.00
45872;BME280;32333;55.844;-3.210;2023-02-23T12:30:03;100095.49;;;5.35;100.00
45872;BME280;32333;55.844;-3.210;2023-02-23T12:32:40;100093.44;;;5.86;99.73
45872;BME280;32333;55.844;-3.210;2023-02-23T12:35:15;100087.02;;;5.68;100.00
45872;BME280;32333;55.844;-3.210;2023-02-23T12:37:50;100085.62;;;5.57;100.00
45872;BME280;32333;55.844;-3.210;2023-02-23T12:40:22;100088.07;;;5.98;96.95
45872;BME280;32333;55.844;-3.210;2023-02-23T12:44:45;100076.59;;;5.24;100.00
45872;BME280;32333;55.844;-3.210;2023-02-23T12:47:25;100067.88;;;6.13;100.00
45872;BME280;32333;55.844;-3.210;2023-02-23T12:49:59;100066.43;;;5.87;100.00
45872;BME280;32333;55.844;-3.210;2023-02-23T12:52:31;100063.23;;;5.37;100.00
45872;BME280;32333;55.844;-3.210;2023-02-23T12:55:01;100057.95;;;6.14;100.00
45872;BME280;32333;55.844;-3.210;2023-02-23T12:57:34;100056.96;;;5.10;100.00
45872;BME280;32333;55.844;-3.210;2023-02-23T13:00:24;100054.76;;;5.85;100.00
45872;BME280;32333;55.844;-3.210;2023-02-23T13:03:12;100046.72;;;6.21;100.00
45872;BME280;32333;55.844;-3.210;2023-02-23T13:05:44;100047.28;;;6.18;100.00
45872;BME280;32333;55.844;-3.210;2023-02-23T13:08:21;100044.61;;;6.28;100.00
45872;BME280;32333;55.844;-3.210;2023-02-23T13:10:58;100040.40;;;5.44;100.00
45872;BME280;32333;55.844;-3.210;2023-02-23T13:14:41;100028.92;;;5.20;100.00
45872;BME280;32333;55.844;-3.210;2023-02-23T13:17:23;100026.78;;;5.76;100.00
45872;BME280;32333;55.844;-3.210;2023-02-23T13:19:57;100019.76;;;5.72;100.00
45872;BME280;32333;55.844;-3.210;2023-02-23T13:22:33;100006.28;;;5.47;100.00
45872;BME280;32333;55.844;-3.210;2023-02-23T13:25:14;100002.94;;;6.05;100.00
45872;BME280;32333;55.844;-3.210;2023-02-23T13:27:52;100004.13;;;6.08;100.00
45872;BME280;32333;55.844;-3.210;2023-02-23T13:30:22;100005.25;;;5.33;100.00
45872;BME280;32333;55.844;-3.210;2023-02-23T13:32:49;99994.60;;;6.89;100.00
45872;BME280;32333;55.844;-3.210;2023-02-23T13:35:18;99993.76;;;5.89;100.00
45872;BME280;32333;55.844;-3.210;2023-02-23T13:37:50;99992.40;;;5.92;100.00
45872;BME280;32333;55.844;-3.210;2023-02-23T13:40:27;99986.72;;;6.00;100.00
45872;BME280;32333;55.844;-3.210;2023-02-23T13:44:42;99979.20;;;6.60;100.00
45872;BME280;32333;55.844;-3.210;2023-02-23T13:47:19;99969.61;;;5.95;100.00
45872;BME280;32333;55.844;-3.210;2023-02-23T13:49:57;99959.87;;;6.47;100.00
45872;BME280;32333;55.844;-3.210;2023-02-23T13:52:29;99955.51;;;6.10;100.00
45872;BME280;32333;55.844;-3.210;2023-02-23T13:54:59;99950.92;;;6.02;100.00
45872;BME280;32333;55.844;-3.210;2023-02-23T13:57:29;99944.84;;;5.14;100.00
45872;BME280;32333;55.844;-3.210;2023-02-23T13:59:58;99939.95;;;5.92;100.00
45872;BME280;32333;55.844;-3.210;2023-02-23T14:02:35;99930.71;;;5.28;100.00
45872;BME280;32333;55.844;-3.210;2023-02-23T14:05:11;99939.09;;;6.16;100.00
45872;BME280;32333;55.844;-3.210;2023-02-23T14:07:42;99939.14;;;5.08;100.00
45872;BME280;32333;55.844;-3.210;2023-02-23T14:10:18;99936.73;;;5.41;100.00
45872;BME280;32333;55.844;-3.210;2023-02-23T14:14:39;99930.63;;;5.74;100.00
45872;BME280;32333;55.844;-3.210;2023-02-23T14:17:36;99925.99;;;6.30;100.00
45872;BME280;32333;55.844;-3.210;2023-02-23T14:20:13;99924.04;;;5.34;100.00
45872;BME280;32333;55.844;-3.210;2023-02-23T14:23:27;99922.01;;;6.45;100.00
45872;BME280;32333;55.844;-3.210;2023-02-23T14:26:14;99918.62;;;5.38;100.00
45872;BME280;32333;55.844;-3.210;2023-02-23T14:28:45;99912.55;;;5.13;100.00
45872;BME280;32333;55.844;-3.210;2023-02-23T14:31:19;99907.99;;;5.78;100.00
45872;BME280;32333;55.844;-3.210;2023-02-23T14:33:56;99905.73;;;5.19;100.00
45872;BME280;32333;55.844;-3.210;2023-02-23T14:36:33;99900.54;;;5.58;100.00
45872;BME280;32333;55.844;-3.210;2023-02-23T14:39:07;99892.30;;;6.01;100.00